createdAt,value
2018-09-02T00:00:08.301Z,102221.47
2018-09-02T00:02:37.331Z,102228.67
2018-09-02T00:05:06.201Z,102230.05
2018-09-02T00:07:35.097Z,102225.36
2018-09-02T00:10:04.213Z,102221.19
2018-09-02T00:12:33.109Z,102220.31
2018-09-02T00:15:02.142Z,102229.37
2018-09-02T00:17:31.120Z,102229.06
2018-09-02T00:19:59.989Z,102225.64
2018-09-02T00:22:28.913Z,102222.09
2018-09-02T00:24:57.675Z,102227.55
2018-09-02T00:27:26.656Z,102231.41
2018-09-02T00:29:55.553Z,102232.31
2018-09-02T00:32:24.643Z,102225.09
2018-09-02T00:34:53.944Z,102225.68
2018-09-02T00:37:22.727Z,102229.55
2018-09-02T00:39:51.509Z,102227.02
2018-09-02T00:42:20.412Z,102222.81
2018-09-02T00:44:49.305Z,102231.13
2018-09-02T00:47:18.199Z,102232.17
2018-09-02T00:49:47.496Z,102228.97
2018-09-02T00:52:16.617Z,102231.73
2018-09-02T00:54:45.637Z,102233.29
2018-09-02T00:57:14.875Z,102228.55
2018-09-02T00:59:43.964Z,102221.64
2018-09-02T01:02:13.264Z,102211.34
2018-09-02T01:04:42.127Z,102219.08
2018-09-02T01:07:11.059Z,102216.03
2018-09-02T01:09:40.343Z,102220.48
2018-09-02T01:12:09.215Z,102217.98
2018-09-02T01:14:38.128Z,102220.25
2018-09-02T01:17:07.231Z,102213.88
2018-09-02T01:19:36.126Z,102214.70
2018-09-02T01:22:05.212Z,102213.52
2018-09-02T01:24:33.908Z,102204.70
2018-09-02T01:27:02.762Z,102209.82
2018-09-02T01:29:31.780Z,102207.94
2018-09-02T01:32:00.673Z,102203.84
2018-09-02T01:34:29.381Z,102206.33
2018-09-02T01:36:58.242Z,102201.08
2018-09-02T01:39:27.155Z,102208.86
2018-09-02T01:41:55.965Z,102201.16
2018-09-02T01:44:24.839Z,102202.87
2018-09-02T01:46:53.815Z,102205.95
2018-09-02T01:49:22.810Z,102207.68
2018-09-02T01:51:51.603Z,102208.82
2018-09-02T01:54:20.356Z,102214.08
2018-09-02T01:56:49.583Z,102215.45
2018-09-02T01:59:18.486Z,102211.62
2018-09-02T02:01:47.291Z,102216.84
2018-09-02T02:04:16.248Z,102210.48
2018-09-02T02:06:45.081Z,102205.51
2018-09-02T02:09:13.917Z,102212.48
2018-09-02T02:11:42.677Z,102213.09
2018-09-02T02:14:11.412Z,102210.61
2018-09-02T02:16:40.119Z,102217.82
2018-09-02T02:19:09.368Z,102212.55
2018-09-02T02:21:38.193Z,102207.58
2018-09-02T02:24:06.869Z,102206.47
2018-09-02T02:26:35.866Z,102203.70
2018-09-02T02:29:05.245Z,102208.98
2018-09-02T02:31:34.262Z,102207.02
2018-09-02T02:34:03.214Z,102208.37
2018-09-02T02:36:32.440Z,102207.27
2018-09-02T02:39:01.775Z,102198.66
2018-09-02T02:41:30.746Z,102199.77
2018-09-02T02:43:59.673Z,102200.56
2018-09-02T02:46:28.496Z,102201.91
2018-09-02T02:48:57.307Z,102197.38
2018-09-02T02:51:26.108Z,102193.23
2018-09-02T02:53:54.992Z,102193.19
2018-09-02T02:56:23.824Z,102191.81
2018-09-02T02:58:52.764Z,102192.91
2018-09-02T03:01:22.043Z,102192.91
2018-09-02T03:03:50.959Z,102197.02
2018-09-02T03:06:20.470Z,102191.73
2018-09-02T03:08:49.404Z,102190.84
2018-09-02T03:11:18.185Z,102189.94
2018-09-02T03:13:47.398Z,102191.12
2018-09-02T03:16:16.173Z,102185.97
2018-09-02T03:18:45.036Z,102187.34
2018-09-02T03:21:13.941Z,102186.83
2018-09-02T03:23:42.807Z,102185.45
2018-09-02T03:26:11.558Z,102191.30
2018-09-02T03:28:41.102Z,102187.98
2018-09-02T03:31:10.368Z,102176.37
2018-09-02T03:33:39.073Z,102175.58
2018-09-02T03:36:08.017Z,102177.88
2018-09-02T03:38:36.971Z,102177.79
2018-09-02T03:41:06.509Z,102182.57
2018-09-02T03:43:35.564Z,102183.91
2018-09-02T03:46:04.455Z,102186.72
2018-09-02T03:48:33.346Z,102187.78
2018-09-02T03:51:02.164Z,102188.84
2018-09-02T03:53:31.129Z,102197.73
2018-09-02T03:56:00.217Z,102190.44
2018-09-02T03:58:29.021Z,102186.36
2018-09-02T04:03:53.212Z,102175.55
2018-09-02T04:06:22.393Z,102172.50
2018-09-02T04:08:51.574Z,102181.55
2018-09-02T04:11:20.613Z,102176.37
2018-09-02T04:13:49.371Z,102180.70
2018-09-02T04:16:18.120Z,102181.81
2018-09-02T04:18:47.264Z,102178.27
2018-09-02T04:21:16.331Z,102173.38
2018-09-02T04:23:45.125Z,102171.75
2018-09-02T04:26:13.912Z,102182.22
2018-09-02T04:28:43.256Z,102178.66
2018-09-02T04:31:11.910Z,102184.70
2018-09-02T04:33:40.747Z,102187.30
2018-09-02T04:36:09.914Z,102192.03
2018-09-02T04:38:38.990Z,102199.50
2018-09-02T04:41:07.909Z,102189.58
2018-09-02T04:43:36.667Z,102185.92
2018-09-02T04:46:05.483Z,102183.47
2018-09-02T04:48:34.132Z,102190.14
2018-09-02T04:51:03.053Z,102194.86
2018-09-02T04:53:31.799Z,102188.20
2018-09-02T04:56:00.637Z,102186.27
2018-09-02T04:58:29.498Z,102191.00
2018-09-02T05:00:58.336Z,102186.23
2018-09-02T05:03:27.308Z,102188.41
2018-09-02T05:05:56.241Z,102186.20
2018-09-02T05:08:24.914Z,102193.66
2018-09-02T05:10:53.825Z,102187.78
2018-09-02T05:13:22.712Z,102180.80
2018-09-02T05:15:51.786Z,102181.86
2018-09-02T05:18:20.694Z,102183.80
2018-09-02T05:20:49.479Z,102188.30
2018-09-02T05:23:18.331Z,102189.00
2018-09-02T05:25:47.187Z,102197.02
2018-09-02T05:28:15.901Z,102185.41
2018-09-02T05:30:45.024Z,102181.13
2018-09-02T05:33:13.971Z,102180.30
2018-09-02T05:35:42.827Z,102182.83
2018-09-02T05:38:11.676Z,102186.64
2018-09-02T05:40:40.432Z,102187.45
2018-09-02T05:43:09.355Z,102185.48
2018-09-02T05:45:38.228Z,102186.05
2018-09-02T05:48:07.106Z,102188.48
2018-09-02T05:50:36.017Z,102188.66
2018-09-02T05:53:04.852Z,102190.14
2018-09-02T05:55:34.012Z,102184.84
2018-09-02T05:58:02.903Z,102185.02
2018-09-02T06:00:31.710Z,102180.31
2018-09-02T06:03:00.555Z,102176.71
2018-09-02T06:05:29.746Z,102174.48
2018-09-02T06:07:59.330Z,102179.43
2018-09-02T06:10:28.003Z,102176.71
2018-09-02T06:12:56.819Z,102173.17
2018-09-02T06:16:28.707Z,102173.34
2018-09-02T06:18:57.655Z,102172.44
2018-09-02T06:21:27.076Z,102173.17
2018-09-02T06:23:55.907Z,102176.72
2018-09-02T06:26:25.232Z,102174.32
2018-09-02T06:28:54.499Z,102179.75
2018-09-02T06:31:23.451Z,102177.86
2018-09-02T06:33:52.702Z,102179.42
2018-09-02T06:36:24.458Z,102178.75
2018-09-02T06:38:53.079Z,102175.77
2018-09-02T06:41:22.119Z,102171.89
2018-09-02T06:43:50.966Z,102166.95
2018-09-02T06:46:20.079Z,102166.05
2018-09-02T06:48:48.747Z,102161.02
2018-09-02T06:51:17.620Z,102157.16
2018-09-02T06:53:52.925Z,102154.11
2018-09-02T06:56:21.935Z,102154.94
2018-09-02T06:58:51.041Z,102156.12
2018-09-02T07:01:20.116Z,102156.37
2018-09-02T07:03:49.005Z,102156.25
2018-09-02T07:06:18.303Z,102156.59
2018-09-02T07:08:47.125Z,102153.55
2018-09-02T07:11:16.716Z,102150.47
2018-09-02T07:13:45.987Z,102150.40
2018-09-02T07:16:14.891Z,102151.58
2018-09-02T07:18:43.631Z,102158.25
2018-09-02T07:21:12.384Z,102160.11
2018-09-02T07:23:41.559Z,102167.19
2018-09-02T07:26:11.040Z,102165.53
2018-09-02T07:28:44.655Z,102168.06
2018-09-02T07:31:13.898Z,102168.09
2018-09-02T07:33:43.015Z,102166.98
2018-09-02T07:36:12.166Z,102166.72
2018-09-02T07:38:41.052Z,102170.78
2018-09-02T07:41:10.050Z,102166.83
2018-09-02T07:43:39.544Z,102163.62
2018-09-02T07:46:08.620Z,102169.65
2018-09-02T07:48:37.945Z,102164.63
2018-09-02T07:51:07.100Z,102166.64
2018-09-02T07:53:35.915Z,102163.09
2018-09-02T07:56:04.627Z,102159.62
2018-09-02T07:58:34.010Z,102156.78
2018-09-02T08:01:03.540Z,102161.87
2018-09-02T08:03:32.504Z,102158.34
2018-09-02T08:06:01.519Z,102161.78
2018-09-02T08:08:30.640Z,102167.23
2018-09-02T08:10:59.532Z,102162.58
2018-09-02T08:13:28.603Z,102162.08
2018-09-02T08:15:57.698Z,102169.91
2018-09-02T08:18:26.706Z,102160.83
2018-09-02T08:20:56.205Z,102156.92
2018-09-02T08:23:25.489Z,102166.27
2018-09-02T08:25:55.963Z,102160.03
2018-09-02T08:28:25.359Z,102157.59
2018-09-02T08:30:54.779Z,102163.04
2018-09-02T08:33:23.905Z,102169.92
2018-09-02T08:35:53.520Z,102167.77
2018-09-02T08:38:22.839Z,102169.48
2018-09-02T08:40:53.132Z,102163.70
2018-09-02T08:43:22.662Z,102171.94
2018-09-02T08:45:51.952Z,102170.76
2018-09-02T08:48:25.471Z,102162.64
2018-09-02T08:50:54.342Z,102162.84
2018-09-02T08:53:23.109Z,102167.30
2018-09-02T08:55:52.381Z,102166.06
2018-09-02T08:58:21.215Z,102165.27
2018-09-02T09:00:50.108Z,102166.48
2018-09-02T09:03:18.977Z,102159.77
2018-09-02T09:05:47.932Z,102156.96
2018-09-02T09:08:17.072Z,102162.41
2018-09-02T09:10:46.310Z,102167.45
2018-09-02T09:13:16.207Z,102165.91
2018-09-02T09:15:45.353Z,102165.28
2018-09-02T09:18:14.648Z,102156.23
2018-09-02T09:20:43.484Z,102161.02
2018-09-02T09:23:13.349Z,102157.98
2018-09-02T09:25:42.780Z,102150.84
2018-09-02T09:28:12.687Z,102155.27
2018-09-02T09:30:41.755Z,102157.78
2018-09-02T09:33:10.827Z,102156.46
2018-09-02T09:35:41.900Z,102157.95
2018-09-02T09:38:12.274Z,102165.19
2018-09-02T09:40:41.231Z,102152.59
2018-09-02T09:43:17.084Z,102162.15
2018-09-02T09:45:46.123Z,102163.33
2018-09-02T09:48:14.870Z,102155.23
2018-09-02T09:50:46.733Z,102155.94
2018-09-02T09:53:15.660Z,102148.00
2018-09-02T09:55:44.635Z,102138.45
2018-09-02T09:58:13.333Z,102139.48
2018-09-02T10:00:47.215Z,102132.77
2018-09-02T10:03:16.395Z,102129.10
2018-09-02T10:05:45.121Z,102133.99
2018-09-02T10:08:13.912Z,102139.45
2018-09-02T10:10:43.278Z,102136.41
2018-09-02T10:13:12.712Z,102133.67
2018-09-02T10:15:41.495Z,102132.23
2018-09-02T10:18:10.501Z,102132.23
2018-09-02T10:20:39.115Z,102122.27
2018-09-02T10:23:08.042Z,102118.67
2018-09-02T10:25:36.963Z,102114.50
2018-09-02T10:28:06.298Z,102108.59
2018-09-02T10:30:34.944Z,102098.22
2018-09-02T10:33:03.818Z,102102.74
2018-09-02T10:35:32.655Z,102096.62
2018-09-02T10:38:01.531Z,102094.11
2018-09-02T10:40:31.344Z,102094.94
2018-09-02T10:43:00.882Z,102084.64
2018-09-02T10:45:31.908Z,102082.21
2018-09-02T10:48:02.405Z,102074.14
2018-09-02T10:50:33.622Z,102068.28
2018-09-02T10:53:02.935Z,102060.37
2018-09-02T10:55:32.061Z,102057.86
2018-09-02T10:58:00.724Z,102052.98
2018-09-02T11:00:29.651Z,102054.13
2018-09-02T11:02:58.763Z,102049.54
2018-09-02T11:05:27.853Z,102049.23
2018-09-02T11:07:56.580Z,102040.97
2018-09-02T11:10:25.343Z,102038.41
2018-09-02T11:12:54.291Z,102032.03
2018-09-02T11:15:23.633Z,102025.52
2018-09-02T11:17:52.578Z,102025.47
2018-09-02T11:20:21.364Z,102026.17
2018-09-02T11:22:52.218Z,102014.52
2018-09-02T11:25:22.685Z,102014.57
2018-09-02T11:27:52.555Z,102004.89
2018-09-02T11:30:21.456Z,102004.27
2018-09-02T11:32:50.326Z,102000.75
2018-09-02T11:35:19.387Z,101997.71
2018-09-02T11:37:48.461Z,101989.19
2018-09-02T11:40:17.249Z,101989.95
2018-09-02T11:42:46.484Z,101983.72
2018-09-02T11:45:15.415Z,101982.37
2018-09-02T11:47:44.484Z,101977.91
2018-09-02T11:50:14.877Z,101980.25
2018-09-02T11:52:45.167Z,101972.02
2018-09-02T11:55:15.940Z,101966.38
2018-09-02T11:57:45.457Z,101965.98
2018-09-02T12:00:14.899Z,101970.70
2018-09-02T12:02:43.794Z,101955.58
2018-09-02T12:05:12.664Z,101957.60
2018-09-02T12:07:41.528Z,101946.56
2018-09-02T12:10:10.449Z,101946.14
2018-09-02T12:12:39.724Z,101940.89
2018-09-02T12:15:08.749Z,101940.23
2018-09-02T12:17:37.647Z,101957.36
2018-09-02T12:20:06.553Z,101955.63
2018-09-02T12:22:35.508Z,101946.86
2018-09-02T12:25:04.413Z,101939.17
2018-09-02T12:27:33.204Z,101940.31
2018-09-02T12:30:01.990Z,101935.88
2018-09-02T12:32:31.902Z,101933.70
2018-09-02T12:35:07.351Z,101931.34
2018-09-02T12:37:36.472Z,101931.96
2018-09-02T12:40:05.376Z,101930.08
2018-09-02T12:42:34.641Z,101927.52
2018-09-02T12:45:03.535Z,101930.14
2018-09-02T12:47:33.419Z,101922.05
2018-09-02T12:50:02.434Z,101922.88
2018-09-02T12:52:31.713Z,101921.23
2018-09-02T12:55:00.660Z,101920.86
2018-09-02T12:57:29.650Z,101918.91
2018-09-02T12:59:58.800Z,101923.99
2018-09-02T13:02:27.811Z,101917.97
2018-09-02T13:04:56.800Z,101913.59
2018-09-02T13:07:25.740Z,101912.85
2018-09-02T13:09:54.952Z,101914.36
2018-09-02T13:12:23.865Z,101911.27
2018-09-02T13:14:53.106Z,101917.77
2018-09-02T13:17:22.099Z,101912.95
2018-09-02T13:19:51.036Z,101913.57
2018-09-02T13:22:22.971Z,101919.36
2018-09-02T13:24:51.791Z,101920.06
2018-09-02T13:27:20.633Z,101920.70
2018-09-02T13:29:49.620Z,101919.94
2018-09-02T13:32:18.677Z,101922.53
2018-09-02T13:34:47.963Z,101921.22
2018-09-02T13:37:17.051Z,101917.53
2018-09-02T13:39:46.096Z,101913.45
2018-09-02T13:42:15.989Z,101912.32
2018-09-02T13:44:44.879Z,101917.28
2018-09-02T13:47:13.702Z,101915.14
2018-09-02T13:49:42.881Z,101914.11
2018-09-02T13:52:11.644Z,101911.07
2018-09-02T13:54:40.486Z,101908.16
2018-09-02T13:57:09.239Z,101904.55
2018-09-02T13:59:38.138Z,101896.30
2018-09-02T14:02:07.019Z,101900.73
2018-09-02T14:04:35.754Z,101898.84
2018-09-02T14:07:04.934Z,101888.54
2018-09-02T14:09:33.764Z,101891.78
2018-09-02T14:12:02.580Z,101889.03
2018-09-02T14:14:31.463Z,101881.17
2018-09-02T14:17:00.277Z,101878.14
2018-09-02T14:19:29.151Z,101872.16
2018-09-02T14:21:57.914Z,101872.20
2018-09-02T14:24:27.072Z,101871.05
2018-09-02T14:26:56.173Z,101862.26
2018-09-02T14:29:24.921Z,101863.46
2018-09-02T14:31:53.628Z,101858.91
2018-09-02T14:34:22.724Z,101850.77
2018-09-02T14:36:51.691Z,101847.84
2018-09-02T14:39:21.323Z,101852.88
2018-09-02T14:41:50.238Z,101845.57
2018-09-02T14:44:19.058Z,101846.97
2018-09-02T14:46:48.073Z,101844.28
2018-09-02T14:49:17.168Z,101841.73
2018-09-02T14:51:46.862Z,101837.39
2018-09-02T14:54:15.627Z,101842.27
2018-09-02T14:56:44.514Z,101836.44
2018-09-02T14:59:13.335Z,101834.39
2018-09-02T15:01:42.129Z,101835.20
2018-09-02T15:04:13.297Z,101841.04
2018-09-02T15:06:42.103Z,101835.31
2018-09-02T15:09:11.570Z,101836.60
2018-09-02T15:11:40.492Z,101834.16
2018-09-02T15:14:09.364Z,101826.48
2018-09-02T15:16:38.268Z,101828.10
2018-09-02T15:19:07.541Z,101828.79
2018-09-02T15:21:37.047Z,101830.17
2018-09-02T15:24:05.863Z,101821.74
2018-09-02T15:26:34.758Z,101819.39
2018-09-02T15:29:03.651Z,101816.03
2018-09-02T15:31:33.010Z,101814.15
2018-09-02T15:34:02.111Z,101809.27
2018-09-02T15:36:31.377Z,101800.63
2018-09-02T15:39:00.512Z,101799.34
2018-09-02T15:41:29.771Z,101801.09
2018-09-02T15:43:58.731Z,101805.43
2018-09-02T15:46:28.198Z,101805.88
2018-09-02T15:48:57.024Z,101804.72
2018-09-02T15:51:25.761Z,101804.13
2018-09-02T15:53:54.661Z,101800.17
2018-09-02T15:56:24.385Z,101801.56
2018-09-02T15:58:53.094Z,101802.61
2018-09-02T16:01:21.946Z,101796.06
2018-09-02T16:03:51.019Z,101795.60
2018-09-02T16:06:20.174Z,101797.34
2018-09-02T16:08:49.031Z,101793.83
2018-09-02T16:11:18.124Z,101800.69
2018-09-02T16:13:46.896Z,101792.55
2018-09-02T16:16:16.326Z,101789.75
2018-09-02T16:18:46.236Z,101795.24
2018-09-02T16:21:15.280Z,101794.41
2018-09-02T16:23:43.959Z,101784.64
2018-09-02T16:26:16.042Z,101788.70
2018-09-02T16:28:44.742Z,101783.59
2018-09-02T16:31:13.493Z,101786.37
2018-09-02T16:33:42.737Z,101783.34
2018-09-02T16:36:11.537Z,101789.17
2018-09-02T16:38:40.825Z,101790.23
2018-09-02T16:41:14.576Z,101791.97
2018-09-02T16:43:43.612Z,101784.27
2018-09-02T16:46:12.279Z,101788.47
2018-09-02T16:48:41.098Z,101787.65
2018-09-02T16:51:10.209Z,101784.86
2018-09-02T16:53:39.015Z,101787.28
2018-09-02T16:56:08.027Z,101790.09
2018-09-02T16:58:37.942Z,101794.28
2018-09-02T17:01:07.035Z,101790.05
2018-09-02T17:03:39.687Z,101787.52
2018-09-02T17:06:08.419Z,101788.67
2018-09-02T17:08:37.763Z,101784.70
2018-09-02T17:11:07.518Z,101785.38
2018-09-02T17:13:37.172Z,101780.52
2018-09-02T17:16:06.961Z,101781.67
2018-09-02T17:18:37.962Z,101778.87
2018-09-02T17:21:06.695Z,101784.64
2018-09-02T17:23:35.629Z,101772.23
2018-09-02T17:26:04.540Z,101774.55
2018-09-02T17:28:33.360Z,101772.87
2018-09-02T17:31:02.860Z,101773.81
2018-09-02T17:33:33.149Z,101768.80
2018-09-02T17:36:02.923Z,101767.56
2018-09-02T17:38:31.834Z,101772.23
2018-09-02T17:41:00.906Z,101773.73
2018-09-02T17:43:31.744Z,101767.78
2018-09-02T17:46:01.534Z,101768.98
2018-09-02T17:48:30.878Z,101767.01
2018-09-02T17:51:00.752Z,101765.78
2018-09-02T17:53:30.488Z,101769.62
2018-09-02T17:56:01.526Z,101760.12
2018-09-02T17:58:30.914Z,101772.44
2018-09-02T18:01:00.999Z,101770.00
2018-09-02T18:03:30.546Z,101774.04
2018-09-02T18:05:59.547Z,101772.44
2018-09-02T18:08:28.341Z,101759.93
2018-09-02T18:10:57.256Z,101764.05
2018-09-02T18:13:27.369Z,101770.14
2018-09-02T18:16:00.571Z,101767.59
2018-09-02T18:18:30.016Z,101778.83
2018-09-02T18:20:59.017Z,101775.20
2018-09-02T18:23:28.262Z,101779.97
2018-09-02T18:25:57.639Z,101779.27
2018-09-02T18:28:29.406Z,101788.59
2018-09-02T18:30:59.121Z,101779.27
2018-09-02T18:33:28.832Z,101784.30
2018-09-02T18:35:58.336Z,101785.26
2018-09-02T18:38:27.500Z,101789.09
2018-09-02T18:40:56.143Z,101781.87
2018-09-02T18:43:25.067Z,101785.65
2018-09-02T18:45:54.396Z,101781.61
2018-09-02T18:48:23.610Z,101782.28
2018-09-02T18:50:52.701Z,101781.84
2018-09-02T18:53:21.998Z,101777.55
2018-09-02T18:55:51.071Z,101785.02
2018-09-02T18:58:20.364Z,101777.63
2018-09-02T19:00:49.497Z,101774.14
2018-09-02T19:03:18.408Z,101772.05
2018-09-02T19:05:47.892Z,101780.58
2018-09-02T19:08:16.785Z,101767.80
2018-09-02T19:10:45.944Z,101769.44
2018-09-02T19:13:15.792Z,101770.02
2018-09-02T19:15:45.067Z,101769.53
2018-09-02T19:18:14.999Z,101769.11
2018-09-02T19:20:44.296Z,101768.99
2018-09-02T19:23:13.077Z,101772.39
2018-09-02T19:25:42.256Z,101768.69
2018-09-02T19:28:12.698Z,101764.91
2018-09-02T19:30:43.745Z,101768.77
2018-09-02T19:33:16.665Z,101766.34
2018-09-02T19:35:46.517Z,101761.91
2018-09-02T19:38:16.883Z,101761.66
2018-09-02T19:40:45.673Z,101760.98
2018-09-02T19:43:14.552Z,101753.01
2018-09-02T19:45:45.144Z,101741.50
2018-09-02T19:48:15.276Z,101746.06
2018-09-02T19:50:45.325Z,101736.86
2018-09-02T19:53:15.966Z,101730.20
2018-09-02T19:55:47.848Z,101728.92
2018-09-02T19:58:18.966Z,101731.42
2018-09-02T20:00:48.836Z,101730.41
2018-09-02T20:03:19.763Z,101729.22
2018-09-02T20:05:49.335Z,101736.45
2018-09-02T20:08:20.244Z,101722.02
2018-09-02T20:10:49.564Z,101726.31
2018-09-02T20:13:18.648Z,101725.88
2018-09-02T20:15:47.867Z,101719.45
2018-09-02T20:18:17.452Z,101715.86
2018-09-02T20:20:46.939Z,101717.13
2018-09-02T20:23:16.474Z,101721.17
2018-09-02T20:25:45.362Z,101712.28
2018-09-02T20:28:14.704Z,101712.50
2018-09-02T20:30:43.627Z,101704.78
2018-09-02T20:33:13.555Z,101710.36
2018-09-02T20:35:42.450Z,101704.86
2018-09-02T20:38:11.154Z,101706.86
2018-09-02T20:40:40.143Z,101708.33
2018-09-02T20:43:09.019Z,101711.33
2018-09-02T20:45:42.392Z,101709.86
2018-09-02T20:48:11.724Z,101701.27
2018-09-02T20:50:40.820Z,101708.00
2018-09-02T20:53:11.214Z,101709.05
2018-09-02T20:55:40.235Z,101709.61
2018-09-02T20:58:09.955Z,101705.94
2018-09-02T21:00:39.562Z,101704.77
2018-09-02T21:03:09.165Z,101699.48
2018-09-02T21:05:38.003Z,101702.41
2018-09-02T21:08:07.308Z,101701.19
2018-09-02T21:10:36.226Z,101701.02
2018-09-02T21:13:05.725Z,101702.69
2018-09-02T21:15:34.854Z,101693.82
2018-09-02T21:18:05.523Z,101696.79
2018-09-02T21:20:34.663Z,101690.59
2018-09-02T21:23:03.772Z,101691.03
2018-09-02T21:25:32.860Z,101697.76
2018-09-02T21:28:01.937Z,101696.08
2018-09-02T21:30:31.064Z,101697.76
2018-09-02T21:33:00.507Z,101698.19
2018-09-02T21:35:29.652Z,101700.62
2018-09-02T21:37:58.750Z,101691.59
2018-09-02T21:40:29.288Z,101698.26
2018-09-02T21:42:58.236Z,101687.73
2018-09-02T21:45:28.539Z,101698.13
2018-09-02T21:47:58.201Z,101687.73
2018-09-02T21:50:28.338Z,101682.06
2018-09-02T21:52:57.430Z,101676.98
2018-09-02T21:55:26.344Z,101677.09
2018-09-02T21:57:55.418Z,101674.23
2018-09-02T22:00:24.509Z,101671.73
2018-09-02T22:02:53.286Z,101664.70
2018-09-02T22:05:22.378Z,101662.74
2018-09-02T22:07:51.154Z,101664.50
2018-09-02T22:10:20.164Z,101657.08
2018-09-02T22:12:48.922Z,101653.49
2018-09-02T22:15:17.695Z,101653.25
2018-09-02T22:17:46.846Z,101650.11
2018-09-02T22:20:15.944Z,101654.47
2018-09-02T22:22:45.772Z,101653.55
2018-09-02T22:25:14.544Z,101644.38
2018-09-02T22:27:43.410Z,101647.61
2018-09-02T22:30:12.301Z,101641.91
2018-09-02T22:32:41.204Z,101635.84
2018-09-02T22:35:10.134Z,101635.19
2018-09-02T22:37:38.872Z,101638.36
2018-09-02T22:40:07.870Z,101630.02
2018-09-02T22:42:36.537Z,101632.16
2018-09-02T22:45:05.631Z,101625.45
2018-09-02T22:47:34.447Z,101639.69
2018-09-02T22:50:03.169Z,101632.70
2018-09-02T22:52:32.180Z,101636.77
2018-09-02T22:55:01.011Z,101633.63
2018-09-02T22:57:29.806Z,101630.42
2018-09-02T22:59:58.579Z,101631.56
2018-09-02T23:02:27.420Z,101634.34
2018-09-02T23:04:56.283Z,101633.09
2018-09-02T23:07:31.736Z,101629.70
2018-09-02T23:10:01.132Z,101632.80
2018-09-02T23:12:29.983Z,101631.91
2018-09-02T23:14:58.886Z,101627.22
2018-09-02T23:17:27.799Z,101617.95
2018-09-02T23:19:56.723Z,101617.48
2018-09-02T23:22:25.520Z,101615.47
2018-09-02T23:24:54.663Z,101605.78
2018-09-02T23:27:23.527Z,101604.63
2018-09-02T23:29:53.894Z,101604.11
2018-09-02T23:32:22.722Z,101603.17
2018-09-02T23:34:51.719Z,101601.41
2018-09-02T23:37:20.475Z,101599.20
2018-09-02T23:39:50.224Z,101594.36
2018-09-02T23:42:19.244Z,101593.06
2018-09-02T23:44:47.931Z,101594.00
2018-09-02T23:47:16.741Z,101593.52
2018-09-02T23:49:45.620Z,101588.84
2018-09-02T23:52:14.548Z,101594.95
2018-09-02T23:54:43.274Z,101601.21
2018-09-02T23:57:12.257Z,101584.98
2018-09-02T23:59:41.151Z,101588.80
